sensor_id;sensor_type;location;lat;lon;timestamp;pressure;altitude;pressure_sealevel;temperature;humidity
21879;BME280;27908;42.708;23.278;2023-03-03T00:02:18;63053.53;;;4.64;100.00
21879;BME280;27908;42.708;23.278;2023-03-03T00:04:44;63041.97;;;4.67;100.00
21879;BME280;27908;42.708;23.278;2023-03-03T00:07:10;63057.06;;;4.62;100.00
21879;BME280;27908;42.708;23.278;2023-03-03T00:09:36;63033.28;;;4.59;100.00
21879;BME280;27908;42.708;23.278;2023-03-03T00:12:20;63023.22;;;4.27;100.00
21879;BME280;27908;42.708;23.278;2023-03-03T00:14:47;63026.66;;;4.55;100.00
21879;BME280;27908;42.708;23.278;2023-03-03T00:17:31;63055.91;;;4.54;100.00
21879;BME280;27908;42.708;23.278;2023-03-03T00:19:57;63010.47;;;4.52;100.00
21879;BME280;27908;42.708;23.278;2023-03-03T00:22:28;62959.88;;;4.42;100.00
21879;BME280;27908;42.708;23.278;2023-03-03T00:24:54;63049.72;;;4.46;100.00
21879;BME280;27908;42.708;23.278;2023-03-03T00:27:29;63037.69;;;4.49;100.00
21879;BME280;27908;42.708;23.278;2023-03-03T00:29:59;63067.44;;;4.48;100.00
21879;BME280;27908;42.708;23.278;2023-03-03T00:34:52;63042.53;;;4.36;100.00
21879;BME280;27908;42.708;23.278;2023-03-03T00:37:29;63023.06;;;4.52;100.00
21879;BME280;27908;42.708;23.278;2023-03-03T00:40:20;63054.44;;;4.58;100.00
21879;BME280;27908;42.708;23.278;2023-03-03T00:42:52;63034.22;;;4.55;100.00
21879;BME280;27908;42.708;23.278;2023-03-03T00:50:57;63010.38;;;4.44;100.00
21879;BME280;27908;42.708;23.278;2023-03-03T00:53:25;63028.44;;;4.40;100.00
21879;BME280;27908;42.708;23.278;2023-03-03T00:55:52;63022.41;;;4.39;100.00
21879;BME280;27908;42.708;23.278;2023-03-03T00:58:18;63016.91;;;4.43;100.00
21879;BME280;27908;42.708;23.278;2023-03-03T01:00:46;63006.03;;;4.23;100.00
21879;BME280;27908;42.708;23.278;2023-03-03T01:03:15;63022.94;;;4.42;100.00
21879;BME280;27908;42.708;23.278;2023-03-03T01:05:41;63025.50;;;4.44;100.00
21879;BME280;27908;42.708;23.278;2023-03-03T01:08:06;63020.97;;;4.45;100.00
21879;BME280;27908;42.708;23.278;2023-03-03T01:10:35;63014.88;;;4.41;100.00
21879;BME280;27908;42.708;23.278;2023-03-03T01:13:03;63025.09;;;4.51;100.00
21879;BME280;27908;42.708;23.278;2023-03-03T01:15:29;63052.31;;;4.48;100.00
21879;BME280;27908;42.708;23.278;2023-03-03T01:17:55;63222.03;;;4.34;100.00
21879;BME280;27908;42.708;23.278;2023-03-03T01:20:21;63032.66;;;4.51;100.00
21879;BME280;27908;42.708;23.278;2023-03-03T01:22:47;63020.59;;;4.54;100.00
21879;BME280;27908;42.708;23.278;2023-03-03T01:25:12;63033.63;;;4.47;100.00
21879;BME280;27908;42.708;23.278;2023-03-03T01:27:38;63022.22;;;4.60;100.00
21879;BME280;27908;42.708;23.278;2023-03-03T01:30:05;63055.53;;;4.63;100.00
21879;BME280;27908;42.708;23.278;2023-03-03T01:32:31;63111.03;;;4.63;100.00
21879;BME280;27908;42.708;23.278;2023-03-03T01:34:57;63034.28;;;4.60;100.00
21879;BME280;27908;42.708;23.278;2023-03-03T01:37:22;63033.13;;;4.49;100.00
21879;BME280;27908;42.708;23.278;2023-03-03T01:39:52;63038.47;;;4.69;100.00
21879;BME280;27908;42.708;23.278;2023-03-03T01:42:19;63048.00;;;4.66;100.00
21879;BME280;27908;42.708;23.278;2023-03-03T01:44:45;63046.47;;;4.64;100.00
21879;BME280;27908;42.708;23.278;2023-03-03T01:47:20;63069.13;;;4.62;100.00
21879;BME280;27908;42.708;23.278;2023-03-03T01:49:59;63057.09;;;4.65;100.00
21879;BME280;27908;42.708;23.278;2023-03-03T01:52:35;63051.47;;;4.62;100.00
21879;BME280;27908;42.708;23.278;2023-03-03T01:55:07;63048.38;;;4.57;100.00
21879;BME280;27908;42.708;23.278;2023-03-03T01:57:43;63051.88;;;4.55;100.00
21879;BME280;27908;42.708;23.278;2023-03-03T02:00:11;63030.72;;;4.57;100.00
21879;BME280;27908;42.708;23.278;2023-03-03T02:02:38;63062.53;;;4.58;100.00
21879;BME280;27908;42.708;23.278;2023-03-03T02:05:06;63023.06;;;4.52;100.00
21879;BME280;27908;42.708;23.278;2023-03-03T02:07:31;63072.53;;;4.53;100.00
21879;BME280;27908;42.708;23.278;2023-03-03T02:10:03;63053.44;;;4.57;100.00
21879;BME280;27908;42.708;23.278;2023-03-03T02:12:48;63011.56;;;4.58;100.00
21879;BME280;27908;42.708;23.278;2023-03-03T02:17:41;63018.00;;;4.49;100.00
21879;BME280;27908;42.708;23.278;2023-03-03T02:20:14;63028.09;;;4.49;100.00
21879;BME280;27908;42.708;23.278;2023-03-03T02:28:15;63001.66;;;4.36;100.00
21879;BME280;27908;42.708;23.278;2023-03-03T02:30:41;63058.88;;;4.50;100.00
21879;BME280;27908;42.708;23.278;2023-03-03T02:33:07;63036.72;;;4.53;100.00
21879;BME280;27908;42.708;23.278;2023-03-03T02:35:35;62991.25;;;4.48;100.00
21879;BME280;27908;42.708;23.278;2023-03-03T02:38:08;63040.75;;;4.54;100.00
21879;BME280;27908;42.708;23.278;2023-03-03T02:40:41;63023.06;;;4.52;100.00
21879;BME280;27908;42.708;23.278;2023-03-03T02:43:10;63004.78;;;4.41;100.00
21879;BME280;27908;42.708;23.278;2023-03-03T02:45:43;63059.75;;;4.41;100.00
21879;BME280;27908;42.708;23.278;2023-03-03T02:48:09;63027.59;;;4.49;100.00
21879;BME280;27908;42.708;23.278;2023-03-03T02:50:35;63019.66;;;4.24;100.00
21879;BME280;27908;42.708;23.278;2023-03-03T02:53:00;63155.41;;;4.31;100.00
21879;BME280;27908;42.708;23.278;2023-03-03T02:55:26;63008.19;;;4.32;100.00
21879;BME280;27908;42.708;23.278;2023-03-03T02:57:51;63011.19;;;4.30;100.00
21879;BME280;27908;42.708;23.278;2023-03-03T03:00:16;62991.63;;;4.38;100.00
21879;BME280;27908;42.708;23.278;2023-03-03T03:02:42;62997.72;;;4.42;100.00
21879;BME280;27908;42.708;23.278;2023-03-03T03:05:08;63028.06;;;4.47;100.00
21879;BME280;27908;42.708;23.278;2023-03-03T03:07:33;63032.06;;;4.46;100.00
21879;BME280;27908;42.708;23.278;2023-03-03T03:09:59;63034.09;;;4.45;100.00
21879;BME280;27908;42.708;23.278;2023-03-03T03:12:24;63042.91;;;4.27;100.00
21879;BME280;27908;42.708;23.278;2023-03-03T03:14:50;62994.63;;;4.36;100.00
21879;BME280;27908;42.708;23.278;2023-03-03T03:17:15;62999.22;;;4.41;100.00
21879;BME280;27908;42.708;23.278;2023-03-03T03:19:41;63009.31;;;4.41;100.00
21879;BME280;27908;42.708;23.278;2023-03-03T03:22:06;62975.00;;;4.39;100.00
21879;BME280;27908;42.708;23.278;2023-03-03T03:24:31;63029.41;;;4.36;100.00
21879;BME280;27908;42.708;23.278;2023-03-03T03:26:57;63001.06;;;4.28;100.00
21879;BME280;27908;42.708;23.278;2023-03-03T03:29:22;62976.25;;;4.21;100.00
21879;BME280;27908;42.708;23.278;2023-03-03T03:31:48;63008.69;;;4.33;100.00
21879;BME280;27908;42.708;23.278;2023-03-03T03:34:13;63025.28;;;4.29;100.00
21879;BME280;27908;42.708;23.278;2023-03-03T03:36:38;63004.63;;;4.31;100.00
21879;BME280;27908;42.708;23.278;2023-03-03T03:39:04;62959.00;;;4.14;100.00
21879;BME280;27908;42.708;23.278;2023-03-03T03:41:31;62988.53;;;4.33;100.00
21879;BME280;27908;42.708;23.278;2023-03-03T03:43:56;63015.28;;;4.34;100.00
21879;BME280;27908;42.708;23.278;2023-03-03T03:46:22;63010.13;;;4.27;100.00
21879;BME280;27908;42.708;23.278;2023-03-03T03:48:47;63001.56;;;4.28;100.00
21879;BME280;27908;42.708;23.278;2023-03-03T03:51:13;62990.03;;;4.32;100.00
21879;BME280;27908;42.708;23.278;2023-03-03T03:53:38;63022.91;;;4.39;100.00
21879;BME280;27908;42.708;23.278;2023-03-03T03:56:04;63023.38;;;4.37;100.00
21879;BME280;27908;42.708;23.278;2023-03-03T03:58:30;63025.91;;;4.37;100.00
21879;BME280;27908;42.708;23.278;2023-03-03T04:01:01;63009.78;;;4.39;100.00
21879;BME280;27908;42.708;23.278;2023-03-03T04:03:26;63062.38;;;4.48;100.00
21879;BME280;27908;42.708;23.278;2023-03-03T04:05:52;63019.91;;;4.41;100.00
21879;BME280;27908;42.708;23.278;2023-03-03T04:08:19;63012.44;;;4.49;100.00
21879;BME280;27908;42.708;23.278;2023-03-03T04:10:44;63026.97;;;4.41;100.00
21879;BME280;27908;42.708;23.278;2023-03-03T04:13:10;63074.53;;;4.50;100.00
21879;BME280;27908;42.708;23.278;2023-03-03T04:15:35;63028.16;;;4.54;100.00
21879;BME280;27908;42.708;23.278;2023-03-03T04:18:02;63076.06;;;4.54;100.00
21879;BME280;27908;42.708;23.278;2023-03-03T04:20:27;63005.81;;;4.42;100.00
21879;BME280;27908;42.708;23.278;2023-03-03T04:22:53;63078.78;;;4.32;100.00
21879;BME280;27908;42.708;23.278;2023-03-03T04:25:19;63024.47;;;4.43;100.00
21879;BME280;27908;42.708;23.278;2023-03-03T04:27:44;63016.41;;;4.43;100.00
21879;BME280;27908;42.708;23.278;2023-03-03T04:30:11;63011.81;;;4.38;100.00
21879;BME280;27908;42.708;23.278;2023-03-03T04:32:37;63037.03;;;4.38;100.00
21879;BME280;27908;42.708;23.278;2023-03-03T04:35:03;63030.91;;;4.35;100.00
21879;BME280;27908;42.708;23.278;2023-03-03T04:37:28;63022.44;;;4.41;100.00
21879;BME280;27908;42.708;23.278;2023-03-03T04:39:54;62980.63;;;4.45;100.00
21879;BME280;27908;42.708;23.278;2023-03-03T04:42:19;63051.81;;;4.50;100.00
21879;BME280;27908;42.708;23.278;2023-03-03T04:44:44;63036.19;;;4.52;100.00
21879;BME280;27908;42.708;23.278;2023-03-03T04:47:10;62987.69;;;4.44;100.00
21879;BME280;27908;42.708;23.278;2023-03-03T04:49:35;63004.38;;;4.48;100.00
21879;BME280;27908;42.708;23.278;2023-03-03T04:52:01;63010.38;;;4.44;100.00
21879;BME280;27908;42.708;23.278;2023-03-03T04:54:26;63055.28;;;4.46;100.00
21879;BME280;27908;42.708;23.278;2023-03-03T04:56:52;63032.13;;;4.48;100.00
21879;BME280;27908;42.708;23.278;2023-03-03T04:59:17;63030.13;;;4.51;100.00
21879;BME280;27908;42.708;23.278;2023-03-03T05:01:43;63011.53;;;4.55;100.00
21879;BME280;27908;42.708;23.278;2023-03-03T05:04:10;63069.03;;;4.55;100.00
21879;BME280;27908;42.708;23.278;2023-03-03T05:06:35;63066.63;;;4.62;100.00
21879;BME280;27908;42.708;23.278;2023-03-03T05:09:01;63021.66;;;4.58;100.00
21879;BME280;27908;42.708;23.278;2023-03-03T05:11:26;63060.22;;;4.73;100.00
21879;BME280;27908;42.708;23.278;2023-03-03T05:13:52;63112.78;;;4.77;100.00
21879;BME280;27908;42.708;23.278;2023-03-03T05:16:17;63069.41;;;4.79;100.00
21879;BME280;27908;42.708;23.278;2023-03-03T05:18:43;63083.13;;;4.85;100.00
21879;BME280;27908;42.708;23.278;2023-03-03T05:21:10;63090.22;;;4.87;100.00
21879;BME280;27908;42.708;23.278;2023-03-03T05:23:35;63087.69;;;4.87;100.00
21879;BME280;27908;42.708;23.278;2023-03-03T05:26:01;63076.03;;;4.86;100.00
21879;BME280;27908;42.708;23.278;2023-03-03T05:28:26;63036.75;;;4.92;100.00
21879;BME280;27908;42.708;23.278;2023-03-03T05:30:52;63073.09;;;4.93;100.00
21879;BME280;27908;42.708;23.278;2023-03-03T05:33:17;63073.56;;;4.88;100.00
21879;BME280;27908;42.708;23.278;2023-03-03T05:35:43;63047.44;;;4.97;100.00
21879;BME280;27908;42.708;23.278;2023-03-03T05:38:10;63072.22;;;4.99;100.00
21879;BME280;27908;42.708;23.278;2023-03-03T05:40:36;63059.41;;;4.87;100.00
21879;BME280;27908;42.708;23.278;2023-03-03T05:43:02;63047.16;;;4.77;100.00
21879;BME280;27908;42.708;23.278;2023-03-03T05:45:27;63070.38;;;4.78;100.00
21879;BME280;27908;42.708;23.278;2023-03-03T05:47:53;63049.53;;;4.67;100.00
21879;BME280;27908;42.708;23.278;2023-03-03T05:50:20;63051.72;;;4.79;100.00
21879;BME280;27908;42.708;23.278;2023-03-03T05:52:50;63106.19;;;4.76;100.00
21879;BME280;27908;42.708;23.278;2023-03-03T05:55:16;63041.06;;;4.74;100.00
21879;BME280;27908;42.708;23.278;2023-03-03T05:57:41;63068.31;;;4.73;100.00
21879;BME280;27908;42.708;23.278;2023-03-03T06:00:07;63068.31;;;4.73;100.00
21879;BME280;27908;42.708;23.278;2023-03-03T06:02:33;63074.59;;;4.89;100.00
21879;BME280;27908;42.708;23.278;2023-03-03T06:04:59;63064.97;;;4.87;100.00
21879;BME280;27908;42.708;23.278;2023-03-03T06:07:24;63049.03;;;4.67;100.00
21879;BME280;27908;42.708;23.278;2023-03-03T06:09:50;63066.16;;;5.00;100.00
21879;BME280;27908;42.708;23.278;2023-03-03T06:12:15;63149.69;;;5.15;100.00
21879;BME280;27908;42.708;23.278;2023-03-03T06:14:41;63076.97;;;5.16;100.00
21879;BME280;27908;42.708;23.278;2023-03-03T06:17:06;63116.78;;;5.10;100.00
21879;BME280;27908;42.708;23.278;2023-03-03T06:19:32;63069.75;;;5.04;100.00
21879;BME280;27908;42.708;23.278;2023-03-03T06:21:57;63127.31;;;5.06;100.00
21879;BME280;27908;42.708;23.278;2023-03-03T06:24:22;63098.09;;;5.09;100.00
21879;BME280;27908;42.708;23.278;2023-03-03T06:26:50;63097.00;;;5.03;100.00
21879;BME280;27908;42.708;23.278;2023-03-03T06:29:16;63161.88;;;5.20;100.00
21879;BME280;27908;42.708;23.278;2023-03-03T06:31:41;63132.59;;;5.21;100.00
21879;BME280;27908;42.708;23.278;2023-03-03T06:34:07;63131.38;;;5.05;100.00
21879;BME280;27908;42.708;23.278;2023-03-03T06:36:33;63089.00;;;5.10;100.00
21879;BME280;27908;42.708;23.278;2023-03-03T06:38:58;63101.19;;;5.15;100.00
21879;BME280;27908;42.708;23.278;2023-03-03T06:41:25;63089.94;;;5.04;100.00
21879;BME280;27908;42.708;23.278;2023-03-03T06:43:50;63095.47;;;5.02;100.00
21879;BME280;27908;42.708;23.278;2023-03-03T06:46:16;63129.53;;;5.18;100.00
21879;BME280;27908;42.708;23.278;2023-03-03T06:48:42;63105.34;;;5.21;100.00
21879;BME280;27908;42.708;23.278;2023-03-03T06:51:23;63112.28;;;5.13;100.00
21879;BME280;27908;42.708;23.278;2023-03-03T06:53:54;63157.66;;;5.08;100.00
21879;BME280;27908;42.708;23.278;2023-03-03T06:56:20;63081.88;;;4.69;100.00
21879;BME280;27908;42.708;23.278;2023-03-03T06:58:45;63105.03;;;4.99;100.00
21879;BME280;27908;42.708;23.278;2023-03-03T07:01:15;63163.78;;;5.46;100.00
21879;BME280;27908;42.708;23.278;2023-03-03T07:03:41;63107.50;;;5.33;100.00
21879;BME280;27908;42.708;23.278;2023-03-03T07:06:36;63167.44;;;5.54;100.00
21879;BME280;27908;42.708;23.278;2023-03-03T07:09:04;63174.22;;;5.70;100.00
21879;BME280;27908;42.708;23.278;2023-03-03T07:11:33;63175.34;;;5.76;100.00
21879;BME280;27908;42.708;23.278;2023-03-03T07:14:01;63205.75;;;5.81;100.00
21879;BME280;27908;42.708;23.278;2023-03-03T07:16:27;63232.13;;;5.87;100.00
21879;BME280;27908;42.708;23.278;2023-03-03T07:21:25;63202.50;;;5.68;100.00
21879;BME280;27908;42.708;23.278;2023-03-03T07:23:54;63152.16;;;5.81;100.00
21879;BME280;27908;42.708;23.278;2023-03-03T07:26:27;63162.41;;;5.91;100.00
21879;BME280;27908;42.708;23.278;2023-03-03T07:29:03;63157.88;;;5.57;100.00
21879;BME280;27908;42.708;23.278;2023-03-03T07:31:37;63223.63;;;5.96;100.00
21879;BME280;27908;42.708;23.278;2023-03-03T07:36:54;63220.53;;;5.91;100.00
21879;BME280;27908;42.708;23.278;2023-03-03T07:39:27;63239.84;;;5.97;100.00
21879;BME280;27908;42.708;23.278;2023-03-03T07:44:54;63201.88;;;5.95;100.00
21879;BME280;27908;42.708;23.278;2023-03-03T07:47:29;63238.91;;;6.03;100.00
21879;BME280;27908;42.708;23.278;2023-03-03T07:50:17;63232.53;;;6.17;100.00
21879;BME280;27908;42.708;23.278;2023-03-03T07:52:58;63226.44;;;6.16;100.00
21879;BME280;27908;42.708;23.278;2023-03-03T07:58:00;63190.78;;;5.96;100.00
21879;BME280;27908;42.708;23.278;2023-03-03T08:03:44;63235.06;;;6.17;100.00
21879;BME280;27908;42.708;23.278;2023-03-03T08:11:56;63257.34;;;6.19;100.00
21879;BME280;27908;42.708;23.278;2023-03-03T08:14:30;63203.34;;;6.28;100.00
21879;BME280;27908;42.708;23.278;2023-03-03T08:16:58;63237.78;;;6.29;100.00
21879;BME280;27908;42.708;23.278;2023-03-03T08:19:24;63244.47;;;6.38;100.00
21879;BME280;27908;42.708;23.278;2023-03-03T08:21:51;63264.84;;;6.48;100.00
21879;BME280;27908;42.708;23.278;2023-03-03T08:24:17;63291.78;;;6.57;100.00
21879;BME280;27908;42.708;23.278;2023-03-03T08:26:42;63278.53;;;6.49;100.00
21879;BME280;27908;42.708;23.278;2023-03-03T08:29:09;63258.63;;;6.37;100.00
21879;BME280;27908;42.708;23.278;2023-03-03T08:31:36;63241.75;;;6.26;100.00
21879;BME280;27908;42.708;23.278;2023-03-03T08:34:01;63209.50;;;6.36;100.00
21879;BME280;27908;42.708;23.278;2023-03-03T08:36:27;63248.59;;;6.44;100.00
21879;BME280;27908;42.708;23.278;2023-03-03T08:38:53;63282.03;;;6.47;100.00
21879;BME280;27908;42.708;23.278;2023-03-03T08:41:18;63292.34;;;6.60;100.00
21879;BME280;27908;42.708;23.278;2023-03-03T08:43:43;63284.13;;;6.52;100.00
21879;BME280;27908;42.708;23.278;2023-03-03T08:46:09;63281.75;;;6.64;100.00
21879;BME280;27908;42.708;23.278;2023-03-03T08:48:35;63280.84;;;6.73;100.00
21879;BME280;27908;42.708;23.278;2023-03-03T08:51:01;63290.47;;;6.72;100.00
21879;BME280;27908;42.708;23.278;2023-03-03T08:53:27;63289.91;;;6.67;100.00
21879;BME280;27908;42.708;23.278;2023-03-03T08:55:53;63359.16;;;6.61;100.00
21879;BME280;27908;42.708;23.278;2023-03-03T08:58:19;63303.31;;;6.48;100.00
21879;BME280;27908;42.708;23.278;2023-03-03T09:00:45;63270.56;;;6.61;100.00
21879;BME280;27908;42.708;23.278;2023-03-03T09:03:11;63283.00;;;6.80;100.00
21879;BME280;27908;42.708;23.278;2023-03-03T09:05:37;63320.38;;;6.74;100.00
21879;BME280;27908;42.708;23.278;2023-03-03T09:08:04;63298.84;;;6.93;100.00
21879;BME280;27908;42.708;23.278;2023-03-03T09:10:30;63311.63;;;7.00;100.00
21879;BME280;27908;42.708;23.278;2023-03-03T09:13:06;63345.56;;;7.01;100.00
21879;BME280;27908;42.708;23.278;2023-03-03T09:15:34;63307.69;;;7.11;100.00
21879;BME280;27908;42.708;23.278;2023-03-03T09:18:36;63328.91;;;7.05;100.00
21879;BME280;27908;42.708;23.278;2023-03-03T09:21:16;63308.13;;;7.04;100.00
21879;BME280;27908;42.708;23.278;2023-03-03T09:26:25;63320.09;;;6.91;100.00
21879;BME280;27908;42.708;23.278;2023-03-03T09:28:54;63320.16;;;6.94;100.00
21879;BME280;27908;42.708;23.278;2023-03-03T09:31:37;63353.75;;;7.07;100.00
21879;BME280;27908;42.708;23.278;2023-03-03T09:34:13;63340.13;;;7.10;100.00
21879;BME280;27908;42.708;23.278;2023-03-03T09:36:40;63366.59;;;7.21;100.00
21879;BME280;27908;42.708;23.278;2023-03-03T09:39:19;63351.03;;;7.31;100.00
21879;BME280;27908;42.708;23.278;2023-03-03T09:44:34;63390.16;;;7.39;100.00
21879;BME280;27908;42.708;23.278;2023-03-03T10:01:14;63392.53;;;7.66;100.00
21879;BME280;27908;42.708;23.278;2023-03-03T10:04:05;63408.25;;;7.66;100.00
21879;BME280;27908;42.708;23.278;2023-03-03T10:12:26;63444.03;;;7.86;100.00
21879;BME280;27908;42.708;23.278;2023-03-03T10:15:11;63492.53;;;8.08;100.00
21879;BME280;27908;42.708;23.278;2023-03-03T10:21:09;63411.41;;;7.74;100.00
21879;BME280;27908;42.708;23.278;2023-03-03T10:23:58;63439.47;;;7.86;100.00
21879;BME280;27908;42.708;23.278;2023-03-03T10:26:59;63468.06;;;7.99;100.00
21879;BME280;27908;42.708;23.278;2023-03-03T10:29:34;63446.72;;;7.98;100.00
21879;BME280;27908;42.708;23.278;2023-03-03T10:40:33;63368.13;;;7.59;100.00
21879;BME280;27908;42.708;23.278;2023-03-03T10:53:49;63328.09;;;6.82;100.00
21879;BME280;27908;42.708;23.278;2023-03-03T10:59:31;63364.56;;;7.19;100.00
21879;BME280;27908;42.708;23.278;2023-03-03T11:05:17;63392.66;;;7.37;100.00
21879;BME280;27908;42.708;23.278;2023-03-03T11:10:27;63408.84;;;7.33;100.00
21879;BME280;27908;42.708;23.278;2023-03-03T11:24:01;63332.56;;;7.15;100.00
21879;BME280;27908;42.708;23.278;2023-03-03T11:31:51;63313.72;;;7.07;100.00
21879;BME280;27908;42.708;23.278;2023-03-03T11:37:07;63341.69;;;7.14;100.00
21879;BME280;27908;42.708;23.278;2023-03-03T11:39:34;63370.88;;;7.38;100.00
21879;BME280;27908;42.708;23.278;2023-03-03T11:44:48;63359.50;;;7.22;100.00
21879;BME280;27908;42.708;23.278;2023-03-03T11:47:24;63364.56;;;7.19;100.00
21879;BME280;27908;42.708;23.278;2023-03-03T11:55:41;63327.34;;;7.03;100.00
21879;BME280;27908;42.708;23.278;2023-03-03T12:00:50;63376.91;;;7.34;100.00
21879;BME280;27908;42.708;23.278;2023-03-03T12:03:28;63405.91;;;7.42;100.00
21879;BME280;27908;42.708;23.278;2023-03-03T12:06:27;63364.09;;;7.24;100.00
21879;BME280;27908;42.708;23.278;2023-03-03T12:12:10;63298.50;;;6.66;100.00
21879;BME280;27908;42.708;23.278;2023-03-03T12:20:39;63268.03;;;6.61;100.00
21879;BME280;27908;42.708;23.278;2023-03-03T12:25:46;63264.78;;;6.43;100.00
21879;BME280;27908;42.708;23.278;2023-03-03T12:29:11;63286.28;;;6.61;100.00
21879;BME280;27908;42.708;23.278;2023-03-03T12:42:52;63250.91;;;6.30;100.00
21879;BME280;27908;42.708;23.278;2023-03-03T12:45:42;63279.38;;;6.38;100.00
21879;BME280;27908;42.708;23.278;2023-03-03T12:48:16;63251.97;;;6.31;100.00
21879;BME280;27908;42.708;23.278;2023-03-03T12:50:54;63245.22;;;6.19;100.00
21879;BME280;27908;42.708;23.278;2023-03-03T12:53:32;63255.94;;;6.27;100.00
21879;BME280;27908;42.708;23.278;2023-03-03T12:56:08;63215.69;;;6.05;100.00
21879;BME280;27908;42.708;23.278;2023-03-03T12:58:48;63227.47;;;6.17;100.00
21879;BME280;27908;42.708;23.278;2023-03-03T13:04:06;63238.91;;;6.03;100.00
21879;BME280;27908;42.708;23.278;2023-03-03T13:06:55;63217.19;;;6.04;100.00
21879;BME280;27908;42.708;23.278;2023-03-03T13:12:31;63214.09;;;5.99;100.00
21879;BME280;27908;42.708;23.278;2023-03-03T13:18:04;63252.06;;;6.40;100.00
21879;BME280;27908;42.708;23.278;2023-03-03T13:26:39;63324.19;;;6.95;100.00
21879;BME280;27908;42.708;23.278;2023-03-03T13:31:48;63365.81;;;7.01;100.00
21879;BME280;27908;42.708;23.278;2023-03-03T13:34:38;63334.13;;;7.17;100.00
21879;BME280;27908;42.708;23.278;2023-03-03T13:37:18;63357.06;;;7.27;100.00
21879;BME280;27908;42.708;23.278;2023-03-03T13:39:54;63335.66;;;7.18;100.00
21879;BME280;27908;42.708;23.278;2023-03-03T13:44:48;63350.22;;;7.08;100.00
21879;BME280;27908;42.708;23.278;2023-03-03T13:47:25;63341.25;;;6.82;100.00
21879;BME280;27908;42.708;23.278;2023-03-03T13:52:42;63327.03;;;7.17;100.00
21879;BME280;27908;42.708;23.278;2023-03-03T13:55:35;63373.69;;;7.21;100.00
21879;BME280;27908;42.708;23.278;2023-03-03T13:58:42;63326.25;;;6.97;100.00
21879;BME280;27908;42.708;23.278;2023-03-03T14:01:20;63344.09;;;7.05;100.00
21879;BME280;27908;42.708;23.278;2023-03-03T14:04:24;63308.88;;;6.85;100.00
21879;BME280;27908;42.708;23.278;2023-03-03T14:06:58;63313.41;;;6.82;100.00
21879;BME280;27908;42.708;23.278;2023-03-03T14:09:59;63307.44;;;6.91;100.00
21879;BME280;27908;42.708;23.278;2023-03-03T14:15:54;63312.72;;;6.70;100.00
21879;BME280;27908;42.708;23.278;2023-03-03T14:18:38;63318.47;;;6.82;100.00
21879;BME280;27908;42.708;23.278;2023-03-03T14:21:25;63310.91;;;6.85;100.00
21879;BME280;27908;42.708;23.278;2023-03-03T14:26:24;63340.63;;;6.74;100.00
21879;BME280;27908;42.708;23.278;2023-03-03T14:28:50;63312.13;;;6.64;100.00
21879;BME280;27908;42.708;23.278;2023-03-03T14:33:56;63337.16;;;6.78;100.00
21879;BME280;27908;42.708;23.278;2023-03-03T14:36:37;63311.63;;;6.64;100.00
21879;BME280;27908;42.708;23.278;2023-03-03T14:41:48;63256.00;;;6.69;100.00
21879;BME280;27908;42.708;23.278;2023-03-03T14:44:30;63298.31;;;6.53;100.00
21879;BME280;27908;42.708;23.278;2023-03-03T14:49:32;63303.91;;;6.54;100.00
21879;BME280;27908;42.708;23.278;2023-03-03T14:54:36;63290.69;;;6.51;100.00
21879;BME280;27908;42.708;23.278;2023-03-03T15:00:07;63315.19;;;6.65;100.00
21879;BME280;27908;42.708;23.278;2023-03-03T15:02:40;63335.91;;;6.63;100.00
21879;BME280;27908;42.708;23.278;2023-03-03T15:05:18;63295.44;;;6.65;100.00
21879;BME280;27908;42.708;23.278;2023-03-03T15:07:47;63285.25;;;6.60;100.00
21879;BME280;27908;42.708;23.278;2023-03-03T15:10:29;63259.25;;;6.45;100.00
21879;BME280;27908;42.708;23.278;2023-03-03T15:12:55;63265.06;;;6.65;100.00
21879;BME280;27908;42.708;23.278;2023-03-03T15:15:23;63269.53;;;6.57;100.00
21879;BME280;27908;42.708;23.278;2023-03-03T15:23:30;63284.19;;;6.57;100.00
21879;BME280;27908;42.708;23.278;2023-03-03T15:26:23;63300.53;;;6.68;100.00
21879;BME280;27908;42.708;23.278;2023-03-03T15:31:39;63273.06;;;6.58;100.00
21879;BME280;27908;42.708;23.278;2023-03-03T15:45:20;63379.13;;;6.75;100.00
21879;BME280;27908;42.708;23.278;2023-03-03T15:56:53;63298.75;;;6.85;100.00
21879;BME280;27908;42.708;23.278;2023-03-03T16:02:19;63314.44;;;6.83;100.00
21879;BME280;27908;42.708;23.278;2023-03-03T16:05:04;63334.00;;;6.71;100.00
21879;BME280;27908;42.708;23.278;2023-03-03T16:10:28;63275.63;;;6.61;100.00
21879;BME280;27908;42.708;23.278;2023-03-03T16:23:51;63306.13;;;6.68;100.00
21879;BME280;27908;42.708;23.278;2023-03-03T16:31:51;63312.03;;;6.93;100.00
21879;BME280;27908;42.708;23.278;2023-03-03T16:39:59;63279.78;;;6.67;100.00
21879;BME280;27908;42.708;23.278;2023-03-03T16:42:28;63286.38;;;6.69;100.00
21879;BME280;27908;42.708;23.278;2023-03-03T16:56:04;63272.75;;;6.72;100.00
21879;BME280;27908;42.708;23.278;2023-03-03T16:58:44;63270.78;;;6.75;100.00
21879;BME280;27908;42.708;23.278;2023-03-03T17:01:27;63334.47;;;6.69;100.00
21879;BME280;27908;42.708;23.278;2023-03-03T17:09:44;63280.47;;;6.80;100.00
21879;BME280;27908;42.708;23.278;2023-03-03T17:17:48;63300.59;;;6.72;100.00
21879;BME280;27908;42.708;23.278;2023-03-03T17:20:43;63285.91;;;6.73;100.00
21879;BME280;27908;42.708;23.278;2023-03-03T17:23:26;63301.88;;;6.54;100.00
21879;BME280;27908;42.708;23.278;2023-03-03T17:29:21;63295.41;;;6.63;100.00
21879;BME280;27908;42.708;23.278;2023-03-03T17:35:21;63288.41;;;6.68;100.00
21879;BME280;27908;42.708;23.278;2023-03-03T17:43:38;63307.22;;;6.74;100.00
21879;BME280;27908;42.708;23.278;2023-03-03T17:46:35;63305.69;;;6.75;100.00
21879;BME280;27908;42.708;23.278;2023-03-03T17:55:33;63284.28;;;6.64;100.00